createdAt,value
2022-08-02T00:03:17.451Z,68.9
2022-08-02T00:18:26.898Z,69
2022-08-02T00:34:38.209Z,69.1
2022-08-02T00:49:49.046Z,70.1
2022-08-02T01:04:58.337Z,69.4
2022-08-02T01:20:07.905Z,69.5
2022-08-02T01:35:17.367Z,68.8
2022-08-02T01:50:27.089Z,69
2022-08-02T02:05:36.452Z,69.5
2022-08-02T02:20:48.254Z,69.8
2022-08-02T02:35:57.805Z,70
2022-08-02T02:51:14.606Z,70.1
2022-08-02T03:06:24.608Z,70.2
2022-08-02T03:21:34.049Z,70.3
2022-08-02T03:36:43.426Z,70.1
2022-08-02T03:51:52.503Z,70
2022-08-02T04:07:08.073Z,70.2
2022-08-02T04:22:17.792Z,70.5
2022-08-02T04:37:26.991Z,70.3
2022-08-02T04:52:36.198Z,70.1
2022-08-02T05:07:45.868Z,70
2022-08-02T05:22:55.461Z,69.7
2022-08-02T05:38:10.729Z,69.6
2022-08-02T05:53:20.308Z,69.5
2022-08-02T06:08:29.595Z,69.2
2022-08-02T06:23:59.884Z,69
2022-08-02T06:39:09.616Z,68.8
2022-08-02T06:54:19.611Z,68.6
2022-08-02T07:09:29.353Z,68.5
2022-08-02T07:24:39.424Z,68.3
2022-08-02T07:39:49.109Z,68
2022-08-02T07:55:01.564Z,67.7
2022-08-02T08:10:11.143Z,67.4
2022-08-02T08:25:27.405Z,67.1
2022-08-02T08:40:39.505Z,66.8
2022-08-02T08:55:48.663Z,66.5
2022-08-02T09:10:58.511Z,66
2022-08-02T09:26:08.317Z,65.4
2022-08-02T09:41:18.099Z,65.5
2022-08-02T09:56:36.336Z,64
2022-08-02T10:11:46.279Z,63.2
2022-08-02T10:26:55.762Z,62.8
2022-08-02T10:42:05.452Z,62.3
2022-08-02T10:57:15.858Z,61.8
2022-08-02T11:12:25.599Z,61.1
2022-08-02T11:27:35.015Z,61.1
2022-08-02T11:42:44.580Z,60.2
2022-08-02T11:58:06.559Z,59.2
2022-08-02T12:13:16.894Z,58
2022-08-02T12:28:26.989Z,56.2
2022-08-02T12:43:36.291Z,56.5
2022-08-02T12:58:48.827Z,55.5
2022-08-02T13:13:58.439Z,55.2
2022-08-02T13:29:11.131Z,54.2
2022-08-02T13:44:20.670Z,53.7
2022-08-02T13:59:59.812Z,52.8
2022-08-02T14:15:08.852Z,53.7
2022-08-02T14:30:17.689Z,52.6
2022-08-02T14:45:41.803Z,51.6
2022-08-02T15:00:53.910Z,51.3
2022-08-02T15:16:04.274Z,49.7
2022-08-02T15:31:37.770Z,49.6
2022-08-02T15:46:49.353Z,49.7
2022-08-02T16:01:59.175Z,50.5
2022-08-02T16:17:07.841Z,51.4
2022-08-02T16:32:17.010Z,52.2
2022-08-02T16:48:05.343Z,52.3
2022-08-02T17:03:15.818Z,52.3
2022-08-02T17:18:27.061Z,53.2
2022-08-02T17:33:37.594Z,53.2
2022-08-02T23:14:23.727Z,60.1
2022-08-02T23:29:32.687Z,60.2
2022-08-02T23:44:42.145Z,60.4
2022-08-02T23:59:51.721Z,60.5
